Main page
Satellite images Climate Cyclones Lightning AirportsFAQ Languages Contact Newsletter About
Weather : Europe Africa North America South America Asia Australia-Oceania Others

, Sanya, Sanya Phoenix International Airport

latitude: , longitude: China, elevation: 18-18N m


METAR: ZJSY 210100Z 06006MPS 030V090 CAVOK 26/16 Q1018 NOSIG